sensor_id;sensor_type;location;lat;lon;timestamp;P1;durP1;ratioP1;P2;durP2;ratioP2
12141;SDS011;6134;59.284;18.022;2023-11-21T00:00:14;3.83;;;2.60;;
12141;SDS011;6134;59.284;18.022;2023-11-21T00:02:43;2.53;;;2.20;;
12141;SDS011;6134;59.284;18.022;2023-11-21T00:05:15;3.00;;;2.03;;
12141;SDS011;6134;59.284;18.022;2023-11-21T00:07:44;3.63;;;2.50;;
12141;SDS011;6134;59.284;18.022;2023-11-21T00:10:13;2.75;;;2.33;;
12141;SDS011;6134;59.284;18.022;2023-11-21T00:12:42;3.33;;;2.58;;
12141;SDS011;6134;59.284;18.022;2023-11-21T00:15:11;3.35;;;2.30;;
12141;SDS011;6134;59.284;18.022;2023-11-21T00:17:40;2.53;;;2.22;;
12141;SDS011;6134;59.284;18.022;2023-11-21T00:20:09;3.33;;;2.10;;
12141;SDS011;6134;59.284;18.022;2023-11-21T00:22:41;2.55;;;2.20;;
12141;SDS011;6134;59.284;18.022;2023-11-21T00:25:10;4.25;;;2.28;;
12141;SDS011;6134;59.284;18.022;2023-11-21T00:27:41;3.00;;;2.50;;
12141;SDS011;6134;59.284;18.022;2023-11-21T00:30:12;3.45;;;2.25;;
12141;SDS011;6134;59.284;18.022;2023-11-21T00:32:41;2.38;;;2.17;;
12141;SDS011;6134;59.284;18.022;2023-11-21T00:35:10;3.17;;;2.60;;
12141;SDS011;6134;59.284;18.022;2023-11-21T00:37:38;2.65;;;2.20;;
12141;SDS011;6134;59.284;18.022;2023-11-21T00:40:11;2.55;;;2.30;;
12141;SDS011;6134;59.284;18.022;2023-11-21T00:42:42;2.70;;;2.35;;
12141;SDS011;6134;59.284;18.022;2023-11-21T00:45:11;2.65;;;2.00;;
12141;SDS011;6134;59.284;18.022;2023-11-21T00:47:39;3.08;;;2.38;;
12141;SDS011;6134;59.284;18.022;2023-11-21T00:50:09;3.10;;;2.13;;
12141;SDS011;6134;59.284;18.022;2023-11-21T00:52:38;3.10;;;2.13;;
12141;SDS011;6134;59.284;18.022;2023-11-21T00:55:07;2.53;;;2.33;;
12141;SDS011;6134;59.284;18.022;2023-11-21T00:57:38;2.92;;;2.10;;
12141;SDS011;6134;59.284;18.022;2023-11-21T01:00:08;3.15;;;2.33;;
12141;SDS011;6134;59.284;18.022;2023-11-21T01:02:43;2.88;;;2.45;;
12141;SDS011;6134;59.284;18.022;2023-11-21T01:05:14;2.80;;;2.22;;
12141;SDS011;6134;59.284;18.022;2023-11-21T01:07:43;2.30;;;2.10;;
12141;SDS011;6134;59.284;18.022;2023-11-21T01:10:12;2.25;;;2.05;;
12141;SDS011;6134;59.284;18.022;2023-11-21T01:12:45;2.45;;;2.25;;
12141;SDS011;6134;59.284;18.022;2023-11-21T01:15:15;2.60;;;2.40;;
12141;SDS011;6134;59.284;18.022;2023-11-21T01:17:43;2.63;;;2.40;;
12141;SDS011;6134;59.284;18.022;2023-11-21T01:20:13;3.53;;;2.45;;
12141;SDS011;6134;59.284;18.022;2023-11-21T01:22:42;2.42;;;2.22;;
12141;SDS011;6134;59.284;18.022;2023-11-21T01:25:11;2.63;;;2.10;;
12141;SDS011;6134;59.284;18.022;2023-11-21T01:27:41;3.10;;;2.40;;
12141;SDS011;6134;59.284;18.022;2023-11-21T01:30:12;2.53;;;2.30;;
12141;SDS011;6134;59.284;18.022;2023-11-21T01:32:43;3.83;;;2.53;;
12141;SDS011;6134;59.284;18.022;2023-11-21T01:35:11;2.72;;;2.42;;
12141;SDS011;6134;59.284;18.022;2023-11-21T01:37:40;4.13;;;2.40;;
12141;SDS011;6134;59.284;18.022;2023-11-21T01:40:09;2.33;;;2.00;;
12141;SDS011;6134;59.284;18.022;2023-11-21T01:42:41;2.80;;;2.35;;
12141;SDS011;6134;59.284;18.022;2023-11-21T01:45:13;2.50;;;2.25;;
12141;SDS011;6134;59.284;18.022;2023-11-21T01:47:42;3.00;;;2.60;;
12141;SDS011;6134;59.284;18.022;2023-11-21T01:50:13;3.00;;;2.35;;
12141;SDS011;6134;59.284;18.022;2023-11-21T01:52:42;3.03;;;2.03;;
12141;SDS011;6134;59.284;18.022;2023-11-21T01:55:12;2.78;;;2.25;;
12141;SDS011;6134;59.284;18.022;2023-11-21T01:57:54;2.40;;;2.20;;
12141;SDS011;6134;59.284;18.022;2023-11-21T02:00:26;2.83;;;2.15;;
12141;SDS011;6134;59.284;18.022;2023-11-21T02:02:56;2.42;;;2.22;;
12141;SDS011;6134;59.284;18.022;2023-11-21T02:05:26;2.90;;;2.60;;
12141;SDS011;6134;59.284;18.022;2023-11-21T02:07:58;3.30;;;2.75;;
12141;SDS011;6134;59.284;18.022;2023-11-21T02:10:28;3.47;;;2.53;;
12141;SDS011;6134;59.284;18.022;2023-11-21T02:12:57;3.75;;;2.40;;
12141;SDS011;6134;59.284;18.022;2023-11-21T02:15:30;3.00;;;2.53;;
12141;SDS011;6134;59.284;18.022;2023-11-21T02:17:59;2.45;;;2.20;;
12141;SDS011;6134;59.284;18.022;2023-11-21T02:20:30;2.72;;;2.50;;
12141;SDS011;6134;59.284;18.022;2023-11-21T02:23:04;2.55;;;2.25;;
12141;SDS011;6134;59.284;18.022;2023-11-21T02:25:33;2.78;;;2.50;;
12141;SDS011;6134;59.284;18.022;2023-11-21T02:28:04;3.92;;;2.60;;
12141;SDS011;6134;59.284;18.022;2023-11-21T02:30:33;2.90;;;2.60;;
12141;SDS011;6134;59.284;18.022;2023-11-21T02:33:03;3.42;;;2.10;;
12141;SDS011;6134;59.284;18.022;2023-11-21T02:35:32;2.60;;;2.40;;
12141;SDS011;6134;59.284;18.022;2023-11-21T02:38:01;2.55;;;2.20;;
12141;SDS011;6134;59.284;18.022;2023-11-21T02:40:32;2.42;;;2.22;;
12141;SDS011;6134;59.284;18.022;2023-11-21T02:43:01;2.65;;;2.17;;
12141;SDS011;6134;59.284;18.022;2023-11-21T02:45:32;2.92;;;2.47;;
12141;SDS011;6134;59.284;18.022;2023-11-21T02:48:01;2.72;;;2.22;;
12141;SDS011;6134;59.284;18.022;2023-11-21T02:50:31;3.05;;;2.47;;
12141;SDS011;6134;59.284;18.022;2023-11-21T02:53:01;3.05;;;2.40;;
12141;SDS011;6134;59.284;18.022;2023-11-21T02:55:33;2.45;;;2.20;;
12141;SDS011;6134;59.284;18.022;2023-11-21T02:58:04;2.60;;;2.40;;
12141;SDS011;6134;59.284;18.022;2023-11-21T03:00:34;2.45;;;2.25;;
12141;SDS011;6134;59.284;18.022;2023-11-21T03:03:02;2.38;;;2.08;;
12141;SDS011;6134;59.284;18.022;2023-11-21T03:05:32;2.75;;;2.38;;
12141;SDS011;6134;59.284;18.022;2023-11-21T03:08:03;2.42;;;2.05;;
12141;SDS011;6134;59.284;18.022;2023-11-21T03:10:32;3.45;;;2.60;;
12141;SDS011;6134;59.284;18.022;2023-11-21T03:13:02;4.55;;;2.60;;
12141;SDS011;6134;59.284;18.022;2023-11-21T03:15:31;3.05;;;2.55;;
12141;SDS011;6134;59.284;18.022;2023-11-21T03:18:01;3.40;;;2.65;;
12141;SDS011;6134;59.284;18.022;2023-11-21T03:20:32;2.90;;;2.25;;
12141;SDS011;6134;59.284;18.022;2023-11-21T03:23:01;3.35;;;2.60;;
12141;SDS011;6134;59.284;18.022;2023-11-21T03:25:30;2.67;;;2.30;;
12141;SDS011;6134;59.284;18.022;2023-11-21T03:27:58;3.85;;;2.40;;
12141;SDS011;6134;59.284;18.022;2023-11-21T03:30:28;3.72;;;2.47;;
12141;SDS011;6134;59.284;18.022;2023-11-21T03:32:57;2.97;;;2.65;;
12141;SDS011;6134;59.284;18.022;2023-11-21T03:35:26;3.47;;;2.80;;
12141;SDS011;6134;59.284;18.022;2023-11-21T03:37:55;10.80;;;3.15;;
12141;SDS011;6134;59.284;18.022;2023-11-21T03:40:23;5.57;;;2.90;;
12141;SDS011;6134;59.284;18.022;2023-11-21T03:42:52;3.97;;;2.88;;
12141;SDS011;6134;59.284;18.022;2023-11-21T03:45:21;4.65;;;2.67;;
12141;SDS011;6134;59.284;18.022;2023-11-21T03:47:52;3.85;;;2.80;;
12141;SDS011;6134;59.284;18.022;2023-11-21T03:50:21;10.63;;;3.50;;
12141;SDS011;6134;59.284;18.022;2023-11-21T03:52:49;4.72;;;2.92;;
12141;SDS011;6134;59.284;18.022;2023-11-21T03:55:18;4.15;;;2.85;;
12141;SDS011;6134;59.284;18.022;2023-11-21T03:57:47;4.85;;;3.10;;
12141;SDS011;6134;59.284;18.022;2023-11-21T04:00:16;5.20;;;2.75;;
12141;SDS011;6134;59.284;18.022;2023-11-21T04:02:46;4.22;;;2.72;;
12141;SDS011;6134;59.284;18.022;2023-11-21T04:05:16;3.38;;;2.78;;
12141;SDS011;6134;59.284;18.022;2023-11-21T04:07:45;4.45;;;2.85;;
12141;SDS011;6134;59.284;18.022;2023-11-21T04:10:15;3.85;;;3.03;;
12141;SDS011;6134;59.284;18.022;2023-11-21T04:12:45;7.70;;;3.28;;
12141;SDS011;6134;59.284;18.022;2023-11-21T04:15:14;10.10;;;3.70;;
12141;SDS011;6134;59.284;18.022;2023-11-21T04:17:44;6.10;;;3.88;;
12141;SDS011;6134;59.284;18.022;2023-11-21T04:20:12;7.38;;;3.35;;
12141;SDS011;6134;59.284;18.022;2023-11-21T04:22:43;4.25;;;3.22;;
12141;SDS011;6134;59.284;18.022;2023-11-21T04:25:13;3.22;;;2.70;;
12141;SDS011;6134;59.284;18.022;2023-11-21T04:27:43;3.15;;;2.72;;
12141;SDS011;6134;59.284;18.022;2023-11-21T04:30:12;4.13;;;2.92;;
12141;SDS011;6134;59.284;18.022;2023-11-21T04:32:41;4.15;;;3.03;;
12141;SDS011;6134;59.284;18.022;2023-11-21T04:35:09;3.83;;;2.60;;
12141;SDS011;6134;59.284;18.022;2023-11-21T04:37:38;2.97;;;2.58;;
12141;SDS011;6134;59.284;18.022;2023-11-21T04:40:09;3.53;;;2.78;;
12141;SDS011;6134;59.284;18.022;2023-11-21T04:42:38;4.18;;;2.75;;
12141;SDS011;6134;59.284;18.022;2023-11-21T04:45:07;3.63;;;2.50;;
12141;SDS011;6134;59.284;18.022;2023-11-21T04:47:39;2.97;;;2.58;;
12141;SDS011;6134;59.284;18.022;2023-11-21T04:50:08;3.72;;;2.95;;
12141;SDS011;6134;59.284;18.022;2023-11-21T04:52:37;4.28;;;2.60;;
12141;SDS011;6134;59.284;18.022;2023-11-21T04:55:06;3.13;;;2.83;;
12141;SDS011;6134;59.284;18.022;2023-11-21T04:57:38;2.80;;;2.53;;
12141;SDS011;6134;59.284;18.022;2023-11-21T05:00:09;2.80;;;2.60;;
12141;SDS011;6134;59.284;18.022;2023-11-21T05:02:39;3.03;;;2.60;;
12141;SDS011;6134;59.284;18.022;2023-11-21T05:05:09;3.70;;;2.40;;
12141;SDS011;6134;59.284;18.022;2023-11-21T05:07:38;3.97;;;2.45;;
12141;SDS011;6134;59.284;18.022;2023-11-21T05:10:08;2.35;;;2.15;;
12141;SDS011;6134;59.284;18.022;2023-11-21T05:12:41;1.98;;;1.85;;
12141;SDS011;6134;59.284;18.022;2023-11-21T05:15:11;2.83;;;2.10;;
12141;SDS011;6134;59.284;18.022;2023-11-21T05:17:41;2.58;;;1.95;;
12141;SDS011;6134;59.284;18.022;2023-11-21T05:20:11;2.88;;;2.03;;
12141;SDS011;6134;59.284;18.022;2023-11-21T05:22:40;2.20;;;2.00;;
12141;SDS011;6134;59.284;18.022;2023-11-21T05:25:09;2.38;;;1.83;;
12141;SDS011;6134;59.284;18.022;2023-11-21T05:27:39;3.88;;;2.25;;
12141;SDS011;6134;59.284;18.022;2023-11-21T05:30:09;2.30;;;2.10;;
12141;SDS011;6134;59.284;18.022;2023-11-21T05:32:39;2.30;;;2.08;;
12141;SDS011;6134;59.284;18.022;2023-11-21T05:35:09;2.30;;;2.10;;
12141;SDS011;6134;59.284;18.022;2023-11-21T05:37:42;2.92;;;2.17;;
12141;SDS011;6134;59.284;18.022;2023-11-21T05:40:11;2.17;;;1.95;;
12141;SDS011;6134;59.284;18.022;2023-11-21T05:42:40;4.28;;;2.60;;
12141;SDS011;6134;59.284;18.022;2023-11-21T05:45:10;2.10;;;1.90;;
12141;SDS011;6134;59.284;18.022;2023-11-21T05:47:40;2.45;;;2.03;;
12141;SDS011;6134;59.284;18.022;2023-11-21T05:50:09;2.10;;;2.00;;
12141;SDS011;6134;59.284;18.022;2023-11-21T05:52:41;2.50;;;1.80;;
12141;SDS011;6134;59.284;18.022;2023-11-21T05:55:10;2.60;;;2.20;;
12141;SDS011;6134;59.284;18.022;2023-11-21T05:57:40;2.28;;;2.03;;
12141;SDS011;6134;59.284;18.022;2023-11-21T06:00:12;2.47;;;1.98;;
12141;SDS011;6134;59.284;18.022;2023-11-21T06:02:46;2.00;;;1.80;;
12141;SDS011;6134;59.284;18.022;2023-11-21T06:05:17;2.25;;;2.05;;
12141;SDS011;6134;59.284;18.022;2023-11-21T06:07:47;2.78;;;2.00;;
12141;SDS011;6134;59.284;18.022;2023-11-21T06:10:16;1.70;;;1.60;;
12141;SDS011;6134;59.284;18.022;2023-11-21T06:12:46;4.60;;;2.13;;
12141;SDS011;6134;59.284;18.022;2023-11-21T06:15:17;3.05;;;2.08;;
12141;SDS011;6134;59.284;18.022;2023-11-21T06:17:47;3.75;;;2.10;;
12141;SDS011;6134;59.284;18.022;2023-11-21T06:20:20;3.45;;;2.30;;
12141;SDS011;6134;59.284;18.022;2023-11-21T06:22:50;3.42;;;2.17;;
12141;SDS011;6134;59.284;18.022;2023-11-21T06:25:19;2.28;;;2.00;;
12141;SDS011;6134;59.284;18.022;2023-11-21T06:27:49;1.95;;;1.75;;
12141;SDS011;6134;59.284;18.022;2023-11-21T06:30:21;2.25;;;2.05;;
12141;SDS011;6134;59.284;18.022;2023-11-21T06:32:50;2.40;;;1.90;;
12141;SDS011;6134;59.284;18.022;2023-11-21T06:35:20;2.72;;;2.00;;
12141;SDS011;6134;59.284;18.022;2023-11-21T06:37:49;3.83;;;1.88;;
12141;SDS011;6134;59.284;18.022;2023-11-21T06:40:19;4.40;;;2.10;;
12141;SDS011;6134;59.284;18.022;2023-11-21T06:42:48;2.13;;;1.90;;
12141;SDS011;6134;59.284;18.022;2023-11-21T06:45:18;3.58;;;2.10;;
12141;SDS011;6134;59.284;18.022;2023-11-21T06:47:49;2.47;;;2.28;;
12141;SDS011;6134;59.284;18.022;2023-11-21T06:50:18;2.67;;;2.00;;
12141;SDS011;6134;59.284;18.022;2023-11-21T06:52:48;2.30;;;1.90;;
12141;SDS011;6134;59.284;18.022;2023-11-21T06:55:16;2.10;;;1.90;;
12141;SDS011;6134;59.284;18.022;2023-11-21T06:57:45;3.15;;;2.00;;
12141;SDS011;6134;59.284;18.022;2023-11-21T07:00:15;2.00;;;1.80;;
12141;SDS011;6134;59.284;18.022;2023-11-21T07:02:45;3.20;;;1.90;;
12141;SDS011;6134;59.284;18.022;2023-11-21T07:05:16;5.47;;;2.50;;
12141;SDS011;6134;59.284;18.022;2023-11-21T07:07:48;2.58;;;2.15;;
12141;SDS011;6134;59.284;18.022;2023-11-21T07:10:18;2.28;;;2.08;;
12141;SDS011;6134;59.284;18.022;2023-11-21T07:12:46;3.20;;;2.33;;
12141;SDS011;6134;59.284;18.022;2023-11-21T07:15:15;5.13;;;2.13;;
12141;SDS011;6134;59.284;18.022;2023-11-21T07:17:46;2.15;;;2.00;;
12141;SDS011;6134;59.284;18.022;2023-11-21T07:20:17;3.08;;;2.03;;
12141;SDS011;6134;59.284;18.022;2023-11-21T07:22:45;2.50;;;2.05;;
12141;SDS011;6134;59.284;18.022;2023-11-21T07:25:14;3.22;;;2.13;;
12141;SDS011;6134;59.284;18.022;2023-11-21T07:27:43;2.83;;;2.10;;
12141;SDS011;6134;59.284;18.022;2023-11-21T07:30:12;2.95;;;2.15;;
12141;SDS011;6134;59.284;18.022;2023-11-21T07:32:41;2.95;;;1.90;;
12141;SDS011;6134;59.284;18.022;2023-11-21T07:35:13;2.88;;;2.22;;
12141;SDS011;6134;59.284;18.022;2023-11-21T07:37:43;4.07;;;2.30;;
12141;SDS011;6134;59.284;18.022;2023-11-21T07:40:14;5.15;;;2.22;;
12141;SDS011;6134;59.284;18.022;2023-11-21T07:42:43;2.53;;;2.33;;
12141;SDS011;6134;59.284;18.022;2023-11-21T07:45:12;2.90;;;2.28;;
12141;SDS011;6134;59.284;18.022;2023-11-21T07:47:41;2.63;;;2.30;;
12141;SDS011;6134;59.284;18.022;2023-11-21T07:50:10;5.78;;;2.45;;
12141;SDS011;6134;59.284;18.022;2023-11-21T07:52:40;2.65;;;2.15;;
12141;SDS011;6134;59.284;18.022;2023-11-21T07:55:10;3.28;;;2.30;;
12141;SDS011;6134;59.284;18.022;2023-11-21T07:57:40;3.63;;;2.78;;
12141;SDS011;6134;59.284;18.022;2023-11-21T08:00:10;4.10;;;2.22;;
12141;SDS011;6134;59.284;18.022;2023-11-21T08:02:39;2.20;;;2.00;;
12141;SDS011;6134;59.284;18.022;2023-11-21T08:05:09;2.30;;;2.10;;
12141;SDS011;6134;59.284;18.022;2023-11-21T08:07:51;3.30;;;2.15;;
12141;SDS011;6134;59.284;18.022;2023-11-21T08:10:21;2.42;;;2.22;;
12141;SDS011;6134;59.284;18.022;2023-11-21T08:12:50;2.90;;;1.95;;
12141;SDS011;6134;59.284;18.022;2023-11-21T08:15:22;2.60;;;2.40;;
12141;SDS011;6134;59.284;18.022;2023-11-21T08:17:51;2.85;;;2.20;;
12141;SDS011;6134;59.284;18.022;2023-11-21T08:20:20;1.75;;;1.65;;
12141;SDS011;6134;59.284;18.022;2023-11-21T08:22:49;3.25;;;2.60;;
12141;SDS011;6134;59.284;18.022;2023-11-21T08:25:18;2.33;;;1.90;;
12141;SDS011;6134;59.284;18.022;2023-11-21T08:27:49;2.17;;;1.58;;
12141;SDS011;6134;59.284;18.022;2023-11-21T08:30:17;3.13;;;2.03;;
12141;SDS011;6134;59.284;18.022;2023-11-21T08:32:49;1.90;;;1.63;;
12141;SDS011;6134;59.284;18.022;2023-11-21T08:35:18;1.73;;;1.63;;
12141;SDS011;6134;59.284;18.022;2023-11-21T08:37:47;1.85;;;1.70;;
12141;SDS011;6134;59.284;18.022;2023-11-21T08:40:16;1.90;;;1.70;;
12141;SDS011;6134;59.284;18.022;2023-11-21T08:42:44;1.60;;;1.50;;
12141;SDS011;6134;59.284;18.022;2023-11-21T08:45:15;2.50;;;1.85;;
12141;SDS011;6134;59.284;18.022;2023-11-21T08:47:44;1.92;;;1.80;;
12141;SDS011;6134;59.284;18.022;2023-11-21T08:50:13;1.63;;;1.52;;
12141;SDS011;6134;59.284;18.022;2023-11-21T08:52:42;2.15;;;1.85;;
12141;SDS011;6134;59.284;18.022;2023-11-21T08:55:12;2.03;;;1.83;;
12141;SDS011;6134;59.284;18.022;2023-11-21T08:57:43;2.10;;;1.70;;
12141;SDS011;6134;59.284;18.022;2023-11-21T09:00:12;2.03;;;1.83;;
12141;SDS011;6134;59.284;18.022;2023-11-21T09:02:45;2.83;;;1.83;;
12141;SDS011;6134;59.284;18.022;2023-11-21T09:05:14;3.00;;;1.83;;
12141;SDS011;6134;59.284;18.022;2023-11-21T09:07:43;3.78;;;1.80;;
12141;SDS011;6134;59.284;18.022;2023-11-21T09:10:15;2.42;;;2.08;;
12141;SDS011;6134;59.284;18.022;2023-11-21T09:12:44;2.85;;;2.10;;
12141;SDS011;6134;59.284;18.022;2023-11-21T09:15:13;6.75;;;1.90;;
12141;SDS011;6134;59.284;18.022;2023-11-21T09:17:42;2.22;;;1.88;;
12141;SDS011;6134;59.284;18.022;2023-11-21T09:20:13;1.75;;;1.45;;
12141;SDS011;6134;59.284;18.022;2023-11-21T09:22:42;1.75;;;1.58;;
12141;SDS011;6134;59.284;18.022;2023-11-21T09:25:13;3.35;;;1.65;;
12141;SDS011;6134;59.284;18.022;2023-11-21T09:27:42;2.40;;;1.60;;
12141;SDS011;6134;59.284;18.022;2023-11-21T09:30:12;4.13;;;1.50;;
12141;SDS011;6134;59.284;18.022;2023-11-21T09:32:41;3.50;;;1.65;;
12141;SDS011;6134;59.284;18.022;2023-11-21T09:35:14;2.55;;;1.42;;
12141;SDS011;6134;59.284;18.022;2023-11-21T09:37:44;1.85;;;1.67;;
12141;SDS011;6134;59.284;18.022;2023-11-21T09:40:16;2.55;;;1.50;;
12141;SDS011;6134;59.284;18.022;2023-11-21T09:42:51;2.17;;;1.58;;
12141;SDS011;6134;59.284;18.022;2023-11-21T09:45:24;6.47;;;1.92;;
12141;SDS011;6134;59.284;18.022;2023-11-21T09:47:53;2.08;;;1.30;;
12141;SDS011;6134;59.284;18.022;2023-11-21T09:50:24;2.08;;;1.52;;
12141;SDS011;6134;59.284;18.022;2023-11-21T09:52:55;5.28;;;1.42;;
12141;SDS011;6134;59.284;18.022;2023-11-21T09:55:24;3.97;;;1.85;;
12141;SDS011;6134;59.284;18.022;2023-11-21T09:57:56;2.50;;;1.85;;
12141;SDS011;6134;59.284;18.022;2023-11-21T10:00:25;2.75;;;1.58;;
12141;SDS011;6134;59.284;18.022;2023-11-21T10:02:54;2.67;;;1.95;;
12141;SDS011;6134;59.284;18.022;2023-11-21T10:05:25;4.50;;;1.65;;
12141;SDS011;6134;59.284;18.022;2023-11-21T10:07:56;2.95;;;1.83;;
12141;SDS011;6134;59.284;18.022;2023-11-21T10:10:25;4.00;;;1.90;;
12141;SDS011;6134;59.284;18.022;2023-11-21T10:12:56;3.97;;;1.95;;
12141;SDS011;6134;59.284;18.022;2023-11-21T10:15:25;3.95;;;2.28;;
12141;SDS011;6134;59.284;18.022;2023-11-21T10:17:55;2.92;;;2.20;;
12141;SDS011;6134;59.284;18.022;2023-11-21T10:20:26;3.47;;;2.08;;
12141;SDS011;6134;59.284;18.022;2023-11-21T10:22:56;4.05;;;2.20;;
12141;SDS011;6134;59.284;18.022;2023-11-21T10:25:24;2.30;;;2.10;;
12141;SDS011;6134;59.284;18.022;2023-11-21T10:27:56;3.15;;;1.90;;
12141;SDS011;6134;59.284;18.022;2023-11-21T10:30:27;2.55;;;1.70;;
12141;SDS011;6134;59.284;18.022;2023-11-21T10:32:58;1.80;;;1.63;;
12141;SDS011;6134;59.284;18.022;2023-11-21T10:35:45;2.15;;;1.80;;
12141;SDS011;6134;59.284;18.022;2023-11-21T10:38:17;2.05;;;1.77;;
12141;SDS011;6134;59.284;18.022;2023-11-21T10:40:48;3.38;;;2.08;;
12141;SDS011;6134;59.284;18.022;2023-11-21T10:43:17;2.47;;;2.28;;
12141;SDS011;6134;59.284;18.022;2023-11-21T10:45:46;4.10;;;2.25;;
12141;SDS011;6134;59.284;18.022;2023-11-21T10:48:15;4.32;;;2.33;;
12141;SDS011;6134;59.284;18.022;2023-11-21T10:50:46;5.28;;;1.98;;
12141;SDS011;6134;59.284;18.022;2023-11-21T10:53:15;2.05;;;1.85;;
12141;SDS011;6134;59.284;18.022;2023-11-21T10:55:46;2.58;;;1.85;;
12141;SDS011;6134;59.284;18.022;2023-11-21T10:58:15;2.33;;;2.13;;
12141;SDS011;6134;59.284;18.022;2023-11-21T11:00:44;7.18;;;2.58;;
12141;SDS011;6134;59.284;18.022;2023-11-21T11:03:13;2.92;;;2.30;;
12141;SDS011;6134;59.284;18.022;2023-11-21T11:05:43;3.47;;;2.10;;
12141;SDS011;6134;59.284;18.022;2023-11-21T11:08:21;4.10;;;2.10;;
12141;SDS011;6134;59.284;18.022;2023-11-21T11:10:54;3.38;;;2.17;;
12141;SDS011;6134;59.284;18.022;2023-11-21T11:13:25;3.17;;;2.30;;
12141;SDS011;6134;59.284;18.022;2023-11-21T11:15:56;3.17;;;2.55;;
12141;SDS011;6134;59.284;18.022;2023-11-21T11:18:27;4.18;;;2.60;;
12141;SDS011;6134;59.284;18.022;2023-11-21T11:20:59;3.22;;;2.40;;
12141;SDS011;6134;59.284;18.022;2023-11-21T11:23:35;2.80;;;2.28;;
12141;SDS011;6134;59.284;18.022;2023-11-21T11:26:09;4.88;;;2.35;;
12141;SDS011;6134;59.284;18.022;2023-11-21T11:28:44;4.10;;;2.40;;
12141;SDS011;6134;59.284;18.022;2023-11-21T11:31:18;3.25;;;2.60;;
12141;SDS011;6134;59.284;18.022;2023-11-21T11:33:53;3.95;;;2.60;;
12141;SDS011;6134;59.284;18.022;2023-11-21T11:36:25;3.42;;;2.75;;
12141;SDS011;6134;59.284;18.022;2023-11-21T11:38:56;12.52;;;2.90;;
12141;SDS011;6134;59.284;18.022;2023-11-21T11:41:25;5.32;;;2.47;;
12141;SDS011;6134;59.284;18.022;2023-11-21T11:43:54;3.13;;;2.40;;
12141;SDS011;6134;59.284;18.022;2023-11-21T11:49:08;3.80;;;2.08;;
12141;SDS011;6134;59.284;18.022;2023-11-21T11:51:38;4.40;;;2.22;;
12141;SDS011;6134;59.284;18.022;2023-11-21T11:54:08;2.50;;;1.80;;
12141;SDS011;6134;59.284;18.022;2023-11-21T11:56:37;9.73;;;2.75;;
12141;SDS011;6134;59.284;18.022;2023-11-21T11:59:08;3.58;;;2.00;;
12141;SDS011;6134;59.284;18.022;2023-11-21T12:01:36;2.53;;;2.10;;
12141;SDS011;6134;59.284;18.022;2023-11-21T12:04:24;3.28;;;2.00;;
12141;SDS011;6134;59.284;18.022;2023-11-21T12:07:02;2.13;;;1.85;;
12141;SDS011;6134;59.284;18.022;2023-11-21T12:09:32;1.80;;;1.70;;
12141;SDS011;6134;59.284;18.022;2023-11-21T12:12:02;2.08;;;1.65;;
12141;SDS011;6134;59.284;18.022;2023-11-21T12:14:31;2.00;;;1.80;;
12141;SDS011;6134;59.284;18.022;2023-11-21T12:16:59;2.10;;;1.90;;
12141;SDS011;6134;59.284;18.022;2023-11-21T12:19:29;1.75;;;1.65;;
12141;SDS011;6134;59.284;18.022;2023-11-21T12:21:59;2.40;;;2.00;;
12141;SDS011;6134;59.284;18.022;2023-11-21T12:24:28;2.63;;;1.88;;
12141;SDS011;6134;59.284;18.022;2023-11-21T12:26:58;2.30;;;1.67;;
12141;SDS011;6134;59.284;18.022;2023-11-21T12:29:26;1.67;;;1.48;;
12141;SDS011;6134;59.284;18.022;2023-11-21T12:31:56;2.03;;;1.60;;
12141;SDS011;6134;59.284;18.022;2023-11-21T12:34:25;1.73;;;1.58;;
12141;SDS011;6134;59.284;18.022;2023-11-21T12:36:54;1.55;;;1.30;;
12141;SDS011;6134;59.284;18.022;2023-11-21T12:39:23;1.95;;;1.65;;
12141;SDS011;6134;59.284;18.022;2023-11-21T12:41:51;2.63;;;1.42;;
12141;SDS011;6134;59.284;18.022;2023-11-21T12:44:22;1.48;;;1.38;;
12141;SDS011;6134;59.284;18.022;2023-11-21T12:46:52;2.65;;;1.83;;
12141;SDS011;6134;59.284;18.022;2023-11-21T12:49:22;3.50;;;1.83;;
12141;SDS011;6134;59.284;18.022;2023-11-21T12:51:51;1.70;;;1.40;;
12141;SDS011;6134;59.284;18.022;2023-11-21T12:54:20;1.40;;;1.30;;
12141;SDS011;6134;59.284;18.022;2023-11-21T12:56:49;3.15;;;1.80;;
12141;SDS011;6134;59.284;18.022;2023-11-21T12:59:20;1.35;;;1.20;;
12141;SDS011;6134;59.284;18.022;2023-11-21T13:01:50;2.00;;;1.30;;
12141;SDS011;6134;59.284;18.022;2023-11-21T13:04:19;2.45;;;1.60;;
12141;SDS011;6134;59.284;18.022;2023-11-21T13:06:48;3.13;;;1.60;;
12141;SDS011;6134;59.284;18.022;2023-11-21T13:09:18;9.13;;;2.35;;
12141;SDS011;6134;59.284;18.022;2023-11-21T13:11:48;2.97;;;1.45;;
12141;SDS011;6134;59.284;18.022;2023-11-21T13:14:17;4.35;;;2.35;;
12141;SDS011;6134;59.284;18.022;2023-11-21T13:16:46;2.85;;;1.73;;
12141;SDS011;6134;59.284;18.022;2023-11-21T13:19:16;2.97;;;2.10;;
12141;SDS011;6134;59.284;18.022;2023-11-21T13:21:48;3.72;;;1.60;;
12141;SDS011;6134;59.284;18.022;2023-11-21T13:24:17;1.38;;;1.27;;
12141;SDS011;6134;59.284;18.022;2023-11-21T13:26:46;2.38;;;1.70;;
12141;SDS011;6134;59.284;18.022;2023-11-21T13:29:16;3.90;;;1.70;;
12141;SDS011;6134;59.284;18.022;2023-11-21T13:31:45;2.17;;;1.40;;
12141;SDS011;6134;59.284;18.022;2023-11-21T13:34:19;1.95;;;1.58;;
12141;SDS011;6134;59.284;18.022;2023-11-21T13:36:54;4.05;;;1.67;;
12141;SDS011;6134;59.284;18.022;2023-11-21T13:39:27;3.22;;;1.25;;
12141;SDS011;6134;59.284;18.022;2023-11-21T13:41:59;2.97;;;1.50;;
12141;SDS011;6134;59.284;18.022;2023-11-21T13:44:30;2.65;;;1.55;;
12141;SDS011;6134;59.284;18.022;2023-11-21T13:47:05;5.47;;;1.50;;
12141;SDS011;6134;59.284;18.022;2023-11-21T13:49:35;2.13;;;1.50;;
12141;SDS011;6134;59.284;18.022;2023-11-21T13:52:08;2.08;;;1.30;;
12141;SDS011;6134;59.284;18.022;2023-11-21T13:54:42;2.25;;;1.20;;
12141;SDS011;6134;59.284;18.022;2023-11-21T13:57:11;1.80;;;1.30;;
12141;SDS011;6134;59.284;18.022;2023-11-21T13:59:40;3.28;;;1.98;;
12141;SDS011;6134;59.284;18.022;2023-11-21T14:02:10;3.22;;;1.70;;
12141;SDS011;6134;59.284;18.022;2023-11-21T14:04:46;2.80;;;1.30;;
12141;SDS011;6134;59.284;18.022;2023-11-21T14:07:23;2.03;;;1.60;;
12141;SDS011;6134;59.284;18.022;2023-11-21T14:10:02;1.70;;;1.38;;
12141;SDS011;6134;59.284;18.022;2023-11-21T14:12:31;2.72;;;1.52;;
12141;SDS011;6134;59.284;18.022;2023-11-21T14:15:05;3.03;;;1.80;;
12141;SDS011;6134;59.284;18.022;2023-11-21T14:17:37;2.17;;;1.38;;
12141;SDS011;6134;59.284;18.022;2023-11-21T14:20:10;2.10;;;1.50;;
12141;SDS011;6134;59.284;18.022;2023-11-21T14:22:43;2.17;;;1.20;;
12141;SDS011;6134;59.284;18.022;2023-11-21T14:25:13;2.90;;;1.58;;
12141;SDS011;6134;59.284;18.022;2023-11-21T14:27:42;5.10;;;1.60;;
12141;SDS011;6134;59.284;18.022;2023-11-21T14:30:11;1.70;;;1.38;;
12141;SDS011;6134;59.284;18.022;2023-11-21T14:32:44;1.60;;;1.50;;
12141;SDS011;6134;59.284;18.022;2023-11-21T14:35:15;1.75;;;1.45;;
12141;SDS011;6134;59.284;18.022;2023-11-21T14:37:44;1.95;;;1.63;;
12141;SDS011;6134;59.284;18.022;2023-11-21T14:40:13;2.85;;;1.80;;
12141;SDS011;6134;59.284;18.022;2023-11-21T14:42:44;2.15;;;1.65;;
12141;SDS011;6134;59.284;18.022;2023-11-21T14:45:14;1.85;;;1.70;;
12141;SDS011;6134;59.284;18.022;2023-11-21T14:47:46;2.00;;;1.35;;
12141;SDS011;6134;59.284;18.022;2023-11-21T14:50:25;3.92;;;1.92;;
12141;SDS011;6134;59.284;18.022;2023-11-21T14:53:17;2.97;;;1.80;;
12141;SDS011;6134;59.284;18.022;2023-11-21T14:56:06;2.15;;;1.75;;
12141;SDS011;6134;59.284;18.022;2023-11-21T14:58:36;2.03;;;1.75;;
12141;SDS011;6134;59.284;18.022;2023-11-21T15:01:05;3.05;;;1.63;;
12141;SDS011;6134;59.284;18.022;2023-11-21T15:03:37;2.22;;;1.80;;
12141;SDS011;6134;59.284;18.022;2023-11-21T15:06:16;3.13;;;1.90;;
12141;SDS011;6134;59.284;18.022;2023-11-21T15:08:54;2.05;;;1.77;;